sensor_id;sensor_type;location;lat;lon;timestamp;temperature;humidity
42949;DHT22;28587;46.794;23.594;2022-09-09T00:04:05;26.80;53.60
42949;DHT22;28587;46.794;23.594;2022-09-09T00:09:14;26.80;53.50
42949;DHT22;28587;46.794;23.594;2022-09-09T00:19:48;26.80;53.60
42949;DHT22;28587;46.794;23.594;2022-09-09T00:25:11;26.80;53.60
42949;DHT22;28587;46.794;23.594;2022-09-09T00:35:42;26.80;53.70
42949;DHT22;28587;46.794;23.594;2022-09-09T00:56:50;26.80;53.40
42949;DHT22;28587;46.794;23.594;2022-09-09T01:01:54;26.80;53.30
42949;DHT22;28587;46.794;23.594;2022-09-09T01:07:06;26.80;53.40
42949;DHT22;28587;46.794;23.594;2022-09-09T01:12:17;26.80;53.60
42949;DHT22;28587;46.794;23.594;2022-09-09T01:17:30;26.80;53.60
42949;DHT22;28587;46.794;23.594;2022-09-09T01:23:10;26.80;53.50
42949;DHT22;28587;46.794;23.594;2022-09-09T01:28:26;26.80;53.80
42949;DHT22;28587;46.794;23.594;2022-09-09T01:33:32;26.80;54.00
42949;DHT22;28587;46.794;23.594;2022-09-09T01:38:33;26.80;54.40
42949;DHT22;28587;46.794;23.594;2022-09-09T01:43:35;26.80;54.20
42949;DHT22;28587;46.794;23.594;2022-09-09T01:48:36;26.80;54.30
42949;DHT22;28587;46.794;23.594;2022-09-09T01:53:42;26.80;54.20
42949;DHT22;28587;46.794;23.594;2022-09-09T02:04:18;26.80;54.30
42949;DHT22;28587;46.794;23.594;2022-09-09T02:09:26;26.80;54.30
42949;DHT22;28587;46.794;23.594;2022-09-09T02:14:36;26.80;54.10
42949;DHT22;28587;46.794;23.594;2022-09-09T02:19:46;26.80;54.00
42949;DHT22;28587;46.794;23.594;2022-09-09T02:24:59;26.80;54.00
42949;DHT22;28587;46.794;23.594;2022-09-09T02:30:04;26.80;54.40
42949;DHT22;28587;46.794;23.594;2022-09-09T02:35:14;26.80;53.40
42949;DHT22;28587;46.794;23.594;2022-09-09T02:40:17;26.80;53.20
42949;DHT22;28587;46.794;23.594;2022-09-09T02:45:41;26.80;53.40
42949;DHT22;28587;46.794;23.594;2022-09-09T02:56:17;26.80;53.80
42949;DHT22;28587;46.794;23.594;2022-09-09T03:01:22;26.80;53.80
42949;DHT22;28587;46.794;23.594;2022-09-09T03:06:23;26.80;53.80
42949;DHT22;28587;46.794;23.594;2022-09-09T03:11:34;26.80;53.70
42949;DHT22;28587;46.794;23.594;2022-09-09T03:16:35;26.80;53.90
42949;DHT22;28587;46.794;23.594;2022-09-09T03:21:36;26.80;53.70
42949;DHT22;28587;46.794;23.594;2022-09-09T03:26:37;26.80;53.70
42949;DHT22;28587;46.794;23.594;2022-09-09T03:31:42;26.80;53.70
42949;DHT22;28587;46.794;23.594;2022-09-09T03:36:44;26.80;53.70
42949;DHT22;28587;46.794;23.594;2022-09-09T03:41:47;26.80;53.70
42949;DHT22;28587;46.794;23.594;2022-09-09T03:46:49;26.80;53.90
42949;DHT22;28587;46.794;23.594;2022-09-09T03:51:50;26.80;53.80
42949;DHT22;28587;46.794;23.594;2022-09-09T03:56:51;26.80;54.00
42949;DHT22;28587;46.794;23.594;2022-09-09T04:01:53;26.80;54.00
42949;DHT22;28587;46.794;23.594;2022-09-09T04:06:54;26.80;54.00
42949;DHT22;28587;46.794;23.594;2022-09-09T04:11:55;26.80;54.00
42949;DHT22;28587;46.794;23.594;2022-09-09T04:16:56;26.80;54.00
42949;DHT22;28587;46.794;23.594;2022-09-09T04:21:58;26.80;54.10
42949;DHT22;28587;46.794;23.594;2022-09-09T04:27:00;26.80;54.00
42949;DHT22;28587;46.794;23.594;2022-09-09T04:32:01;26.80;54.20
42949;DHT22;28587;46.794;23.594;2022-09-09T04:37:02;26.80;54.10
42949;DHT22;28587;46.794;23.594;2022-09-09T04:42:03;26.70;53.90
42949;DHT22;28587;46.794;23.594;2022-09-09T04:47:05;26.80;54.10
42949;DHT22;28587;46.794;23.594;2022-09-09T04:52:07;26.80;53.70
42949;DHT22;28587;46.794;23.594;2022-09-09T04:57:10;26.80;54.20
42949;DHT22;28587;46.794;23.594;2022-09-09T05:02:12;26.80;54.50
42949;DHT22;28587;46.794;23.594;2022-09-09T05:07:13;26.80;54.30
42949;DHT22;28587;46.794;23.594;2022-09-09T05:12:16;26.70;54.10
42949;DHT22;28587;46.794;23.594;2022-09-09T05:17:25;26.80;54.70
42949;DHT22;28587;46.794;23.594;2022-09-09T05:22:26;26.80;54.70
42949;DHT22;28587;46.794;23.594;2022-09-09T05:27:28;26.80;54.50
42949;DHT22;28587;46.794;23.594;2022-09-09T05:32:34;26.80;54.60
42949;DHT22;28587;46.794;23.594;2022-09-09T05:37:35;26.80;54.70
42949;DHT22;28587;46.794;23.594;2022-09-09T05:42:37;26.80;53.90
42949;DHT22;28587;46.794;23.594;2022-09-09T05:47:38;26.80;53.80
42949;DHT22;28587;46.794;23.594;2022-09-09T05:52:43;26.70;53.60
42949;DHT22;28587;46.794;23.594;2022-09-09T05:57:48;26.70;53.10
42949;DHT22;28587;46.794;23.594;2022-09-09T06:02:51;26.70;53.50
42949;DHT22;28587;46.794;23.594;2022-09-09T06:07:54;26.70;53.40
42949;DHT22;28587;46.794;23.594;2022-09-09T06:12:56;26.70;53.00
42949;DHT22;28587;46.794;23.594;2022-09-09T06:17:57;26.60;53.40
42949;DHT22;28587;46.794;23.594;2022-09-09T06:22:58;26.70;53.40
42949;DHT22;28587;46.794;23.594;2022-09-09T06:28:01;26.60;53.40
42949;DHT22;28587;46.794;23.594;2022-09-09T06:33:03;26.60;53.50
42949;DHT22;28587;46.794;23.594;2022-09-09T06:38:05;26.60;53.20
42949;DHT22;28587;46.794;23.594;2022-09-09T06:43:06;26.60;53.60
42949;DHT22;28587;46.794;23.594;2022-09-09T06:48:15;26.60;53.80
42949;DHT22;28587;46.794;23.594;2022-09-09T06:53:17;26.60;53.50
42949;DHT22;28587;46.794;23.594;2022-09-09T06:58:20;26.60;53.20
42949;DHT22;28587;46.794;23.594;2022-09-09T07:03:26;26.60;53.50
42949;DHT22;28587;46.794;23.594;2022-09-09T07:08:27;26.60;53.60
42949;DHT22;28587;46.794;23.594;2022-09-09T07:13:29;26.60;53.50
42949;DHT22;28587;46.794;23.594;2022-09-09T07:18:31;26.60;53.50
42949;DHT22;28587;46.794;23.594;2022-09-09T07:23:32;26.60;53.50
42949;DHT22;28587;46.794;23.594;2022-09-09T07:28:33;26.60;53.50
42949;DHT22;28587;46.794;23.594;2022-09-09T07:33:35;26.60;53.80
42949;DHT22;28587;46.794;23.594;2022-09-09T07:38:38;26.50;53.70
42949;DHT22;28587;46.794;23.594;2022-09-09T07:43:41;26.50;53.90
42949;DHT22;28587;46.794;23.594;2022-09-09T07:48:50;26.60;53.70
42949;DHT22;28587;46.794;23.594;2022-09-09T07:53:55;26.60;53.80
42949;DHT22;28587;46.794;23.594;2022-09-09T07:58:58;26.60;53.70
42949;DHT22;28587;46.794;23.594;2022-09-09T08:04:02;26.60;54.30
42949;DHT22;28587;46.794;23.594;2022-09-09T08:09:06;26.60;54.30
42949;DHT22;28587;46.794;23.594;2022-09-09T08:14:08;26.60;54.30
42949;DHT22;28587;46.794;23.594;2022-09-09T08:19:12;26.60;54.90
42949;DHT22;28587;46.794;23.594;2022-09-09T08:24:14;26.50;54.90
42949;DHT22;28587;46.794;23.594;2022-09-09T08:29:19;26.50;55.10
42949;DHT22;28587;46.794;23.594;2022-09-09T08:34:22;26.40;55.10
42949;DHT22;28587;46.794;23.594;2022-09-09T08:39:24;26.30;55.80
42949;DHT22;28587;46.794;23.594;2022-09-09T08:44:41;26.30;55.80
42949;DHT22;28587;46.794;23.594;2022-09-09T09:11:42;26.10;55.80
42949;DHT22;28587;46.794;23.594;2022-09-09T09:27:32;26.10;56.80
42949;DHT22;28587;46.794;23.594;2022-09-09T09:32:35;26.10;57.00
42949;DHT22;28587;46.794;23.594;2022-09-09T09:37:41;26.10;56.70
42949;DHT22;28587;46.794;23.594;2022-09-09T09:43:00;26.10;56.70
42949;DHT22;28587;46.794;23.594;2022-09-09T09:48:09;26.10;56.80
42949;DHT22;28587;46.794;23.594;2022-09-09T09:53:25;26.10;56.50
42949;DHT22;28587;46.794;23.594;2022-09-09T09:58:31;26.10;57.40
42949;DHT22;28587;46.794;23.594;2022-09-09T10:03:35;26.10;57.20
42949;DHT22;28587;46.794;23.594;2022-09-09T10:08:46;26.10;56.80
42949;DHT22;28587;46.794;23.594;2022-09-09T10:19:35;26.10;56.90
42949;DHT22;28587;46.794;23.594;2022-09-09T10:30:14;26.10;57.00
42949;DHT22;28587;46.794;23.594;2022-09-09T10:40:36;26.10;56.40
42949;DHT22;28587;46.794;23.594;2022-09-09T10:56:21;26.10;56.90
42949;DHT22;28587;46.794;23.594;2022-09-09T11:01:28;26.10;57.40
42949;DHT22;28587;46.794;23.594;2022-09-09T11:06:37;26.10;57.00
42949;DHT22;28587;46.794;23.594;2022-09-09T11:11:53;26.10;57.40
42949;DHT22;28587;46.794;23.594;2022-09-09T11:17:21;26.10;57.50
42949;DHT22;28587;46.794;23.594;2022-09-09T11:22:36;26.10;57.40
42949;DHT22;28587;46.794;23.594;2022-09-09T11:28:06;26.10;57.30
42949;DHT22;28587;46.794;23.594;2022-09-09T11:38:37;26.20;57.60
42949;DHT22;28587;46.794;23.594;2022-09-09T11:43:42;26.20;57.60
42949;DHT22;28587;46.794;23.594;2022-09-09T11:48:45;26.20;57.70
42949;DHT22;28587;46.794;23.594;2022-09-09T11:53:51;26.30;57.50
42949;DHT22;28587;46.794;23.594;2022-09-09T11:59:19;26.30;56.00
42949;DHT22;28587;46.794;23.594;2022-09-09T12:05:08;26.30;57.30
42949;DHT22;28587;46.794;23.594;2022-09-09T12:10:20;26.30;56.90
42949;DHT22;28587;46.794;23.594;2022-09-09T12:15:26;26.30;57.40
42949;DHT22;28587;46.794;23.594;2022-09-09T12:20:36;26.30;57.30
42949;DHT22;28587;46.794;23.594;2022-09-09T12:36:28;26.20;58.90
42949;DHT22;28587;46.794;23.594;2022-09-09T12:41:30;26.20;58.20
42949;DHT22;28587;46.794;23.594;2022-09-09T12:46:35;26.20;59.20
42949;DHT22;28587;46.794;23.594;2022-09-09T12:51:37;26.30;58.60
42949;DHT22;28587;46.794;23.594;2022-09-09T12:56:38;26.30;58.00
42949;DHT22;28587;46.794;23.594;2022-09-09T13:01:39;26.30;58.90
42949;DHT22;28587;46.794;23.594;2022-09-09T13:06:40;26.30;58.50
42949;DHT22;28587;46.794;23.594;2022-09-09T13:11:44;26.30;58.50
42949;DHT22;28587;46.794;23.594;2022-09-09T13:16:58;26.40;58.60
42949;DHT22;28587;46.794;23.594;2022-09-09T13:22:00;26.40;59.10
42949;DHT22;28587;46.794;23.594;2022-09-09T13:27:34;26.40;59.10
42949;DHT22;28587;46.794;23.594;2022-09-09T13:32:39;26.50;55.00
42949;DHT22;28587;46.794;23.594;2022-09-09T13:37:40;26.50;58.00
42949;DHT22;28587;46.794;23.594;2022-09-09T13:42:41;26.50;58.00
42949;DHT22;28587;46.794;23.594;2022-09-09T13:47:43;26.50;58.70
42949;DHT22;28587;46.794;23.594;2022-09-09T13:52:44;26.50;58.30
42949;DHT22;28587;46.794;23.594;2022-09-09T13:57:52;26.50;57.40
42949;DHT22;28587;46.794;23.594;2022-09-09T14:02:53;26.40;57.50
42949;DHT22;28587;46.794;23.594;2022-09-09T14:07:55;26.40;59.90
42949;DHT22;28587;46.794;23.594;2022-09-09T14:12:57;26.50;60.60
42949;DHT22;28587;46.794;23.594;2022-09-09T14:17:58;26.50;60.60
42949;DHT22;28587;46.794;23.594;2022-09-09T14:22:59;26.50;60.60
42949;DHT22;28587;46.794;23.594;2022-09-09T14:28:00;26.50;60.80
42949;DHT22;28587;46.794;23.594;2022-09-09T14:33:02;26.50;61.20
42949;DHT22;28587;46.794;23.594;2022-09-09T14:38:04;26.50;60.70
42949;DHT22;28587;46.794;23.594;2022-09-09T14:43:05;26.50;60.60
42949;DHT22;28587;46.794;23.594;2022-09-09T14:48:06;26.50;59.30
42949;DHT22;28587;46.794;23.594;2022-09-09T14:53:07;26.60;60.40
42949;DHT22;28587;46.794;23.594;2022-09-09T14:58:09;26.60;60.20
42949;DHT22;28587;46.794;23.594;2022-09-09T15:03:10;26.60;60.20
42949;DHT22;28587;46.794;23.594;2022-09-09T15:08:11;26.60;60.90
42949;DHT22;28587;46.794;23.594;2022-09-09T15:13:14;26.60;61.00
42949;DHT22;28587;46.794;23.594;2022-09-09T15:18:15;26.60;61.00
42949;DHT22;28587;46.794;23.594;2022-09-09T15:23:16;26.60;61.00
42949;DHT22;28587;46.794;23.594;2022-09-09T15:28:18;26.60;61.20
42949;DHT22;28587;46.794;23.594;2022-09-09T15:33:20;26.60;61.40
42949;DHT22;28587;46.794;23.594;2022-09-09T15:38:22;26.60;61.90
42949;DHT22;28587;46.794;23.594;2022-09-09T15:43:22;26.60;62.00
42949;DHT22;28587;46.794;23.594;2022-09-09T15:48:30;26.60;61.70
42949;DHT22;28587;46.794;23.594;2022-09-09T15:53:33;26.60;62.30
42949;DHT22;28587;46.794;23.594;2022-09-09T15:58:35;26.60;62.40
42949;DHT22;28587;46.794;23.594;2022-09-09T16:03:46;26.60;62.90
42949;DHT22;28587;46.794;23.594;2022-09-09T16:08:49;26.60;62.60
42949;DHT22;28587;46.794;23.594;2022-09-09T16:13:54;26.60;62.50
42949;DHT22;28587;46.794;23.594;2022-09-09T16:18:57;26.60;62.80
42949;DHT22;28587;46.794;23.594;2022-09-09T16:24:01;26.60;62.40
42949;DHT22;28587;46.794;23.594;2022-09-09T16:29:03;26.60;63.10
42949;DHT22;28587;46.794;23.594;2022-09-09T16:34:04;26.60;62.00
42949;DHT22;28587;46.794;23.594;2022-09-09T16:39:11;26.60;61.80
42949;DHT22;28587;46.794;23.594;2022-09-09T16:44:13;26.60;61.20
42949;DHT22;28587;46.794;23.594;2022-09-09T16:49:14;26.70;61.10
42949;DHT22;28587;46.794;23.594;2022-09-09T16:54:17;26.70;61.60
42949;DHT22;28587;46.794;23.594;2022-09-09T16:59:20;26.70;62.00
42949;DHT22;28587;46.794;23.594;2022-09-09T17:04:24;26.70;62.10
42949;DHT22;28587;46.794;23.594;2022-09-09T17:09:26;26.70;61.60
42949;DHT22;28587;46.794;23.594;2022-09-09T17:14:29;26.70;62.10
42949;DHT22;28587;46.794;23.594;2022-09-09T17:19:31;26.70;62.10
42949;DHT22;28587;46.794;23.594;2022-09-09T17:24:32;26.70;61.70
42949;DHT22;28587;46.794;23.594;2022-09-09T17:29:35;26.70;61.80
42949;DHT22;28587;46.794;23.594;2022-09-09T17:34:36;26.70;62.20
42949;DHT22;28587;46.794;23.594;2022-09-09T17:39:38;26.70;62.30
42949;DHT22;28587;46.794;23.594;2022-09-09T17:44:39;26.70;61.80
42949;DHT22;28587;46.794;23.594;2022-09-09T17:49:40;26.70;62.30
42949;DHT22;28587;46.794;23.594;2022-09-09T17:54:42;26.70;62.50
42949;DHT22;28587;46.794;23.594;2022-09-09T17:59:43;26.70;61.90
42949;DHT22;28587;46.794;23.594;2022-09-09T18:04:44;26.70;62.30
42949;DHT22;28587;46.794;23.594;2022-09-09T18:09:47;26.70;65.80
42949;DHT22;28587;46.794;23.594;2022-09-09T18:14:49;26.80;70.00
42949;DHT22;28587;46.794;23.594;2022-09-09T18:19:50;26.80;71.50
42949;DHT22;28587;46.794;23.594;2022-09-09T18:24:51;26.80;70.40
42949;DHT22;28587;46.794;23.594;2022-09-09T18:29:53;26.80;67.10
42949;DHT22;28587;46.794;23.594;2022-09-09T18:34:54;26.80;67.10
42949;DHT22;28587;46.794;23.594;2022-09-09T18:39:58;26.80;66.80
42949;DHT22;28587;46.794;23.594;2022-09-09T18:44:59;26.80;66.10
42949;DHT22;28587;46.794;23.594;2022-09-09T18:50:00;26.80;65.90
42949;DHT22;28587;46.794;23.594;2022-09-09T18:55:01;26.80;65.60
42949;DHT22;28587;46.794;23.594;2022-09-09T19:00:03;26.80;66.30
42949;DHT22;28587;46.794;23.594;2022-09-09T19:05:04;26.70;66.20
42949;DHT22;28587;46.794;23.594;2022-09-09T19:10:06;26.80;65.40
42949;DHT22;28587;46.794;23.594;2022-09-09T19:15:07;26.80;65.50
42949;DHT22;28587;46.794;23.594;2022-09-09T19:20:08;26.80;65.00
42949;DHT22;28587;46.794;23.594;2022-09-09T19:25:09;26.80;64.90
42949;DHT22;28587;46.794;23.594;2022-09-09T19:30:11;26.90;64.40
42949;DHT22;28587;46.794;23.594;2022-09-09T19:35:13;26.90;64.70
42949;DHT22;28587;46.794;23.594;2022-09-09T19:40:14;26.90;64.40
42949;DHT22;28587;46.794;23.594;2022-09-09T19:45:15;26.90;64.40
42949;DHT22;28587;46.794;23.594;2022-09-09T19:50:16;26.90;64.70
42949;DHT22;28587;46.794;23.594;2022-09-09T19:55:17;26.90;64.70
42949;DHT22;28587;46.794;23.594;2022-09-09T20:00:18;26.80;64.70
42949;DHT22;28587;46.794;23.594;2022-09-09T20:05:19;26.80;64.60
42949;DHT22;28587;46.794;23.594;2022-09-09T20:10:20;26.80;64.60
42949;DHT22;28587;46.794;23.594;2022-09-09T20:15:23;26.80;64.40
42949;DHT22;28587;46.794;23.594;2022-09-09T20:20:23;26.80;64.30
42949;DHT22;28587;46.794;23.594;2022-09-09T20:25:24;26.80;64.30
42949;DHT22;28587;46.794;23.594;2022-09-09T20:30:25;26.80;64.00
42949;DHT22;28587;46.794;23.594;2022-09-09T20:35:27;26.80;63.80
42949;DHT22;28587;46.794;23.594;2022-09-09T20:40:28;26.80;64.00
42949;DHT22;28587;46.794;23.594;2022-09-09T20:45:30;26.80;63.80
42949;DHT22;28587;46.794;23.594;2022-09-09T20:50:33;26.80;63.70
42949;DHT22;28587;46.794;23.594;2022-09-09T20:55:34;26.80;63.70
42949;DHT22;28587;46.794;23.594;2022-09-09T21:00:35;26.80;63.30
42949;DHT22;28587;46.794;23.594;2022-09-09T21:05:36;26.80;63.90
42949;DHT22;28587;46.794;23.594;2022-09-09T21:10:43;26.80;63.70
42949;DHT22;28587;46.794;23.594;2022-09-09T21:15:46;26.80;63.40
42949;DHT22;28587;46.794;23.594;2022-09-09T21:20:48;26.80;63.30
42949;DHT22;28587;46.794;23.594;2022-09-09T21:25:50;26.80;63.20
42949;DHT22;28587;46.794;23.594;2022-09-09T21:30:52;26.80;63.00
42949;DHT22;28587;46.794;23.594;2022-09-09T21:36:01;26.80;63.00
42949;DHT22;28587;46.794;23.594;2022-09-09T21:41:04;26.80;62.90
42949;DHT22;28587;46.794;23.594;2022-09-09T21:46:09;26.80;62.70
42949;DHT22;28587;46.794;23.594;2022-09-09T21:51:13;26.80;62.70
42949;DHT22;28587;46.794;23.594;2022-09-09T21:56:17;26.80;62.60
42949;DHT22;28587;46.794;23.594;2022-09-09T22:01:18;26.80;62.50
42949;DHT22;28587;46.794;23.594;2022-09-09T22:06:19;26.70;62.40
42949;DHT22;28587;46.794;23.594;2022-09-09T22:11:21;26.80;62.40
42949;DHT22;28587;46.794;23.594;2022-09-09T22:16:22;26.80;62.40
42949;DHT22;28587;46.794;23.594;2022-09-09T22:21:24;26.70;62.10
42949;DHT22;28587;46.794;23.594;2022-09-09T22:26:28;26.70;62.00
42949;DHT22;28587;46.794;23.594;2022-09-09T22:31:30;26.70;62.00
42949;DHT22;28587;46.794;23.594;2022-09-09T22:36:31;26.70;62.00
42949;DHT22;28587;46.794;23.594;2022-09-09T22:41:32;26.70;61.90
42949;DHT22;28587;46.794;23.594;2022-09-09T22:46:33;26.70;61.90
42949;DHT22;28587;46.794;23.594;2022-09-09T22:51:34;26.70;61.90
42949;DHT22;28587;46.794;23.594;2022-09-09T22:56:35;26.70;61.80
42949;DHT22;28587;46.794;23.594;2022-09-09T23:01:36;26.70;61.70
42949;DHT22;28587;46.794;23.594;2022-09-09T23:06:38;26.70;61.80
42949;DHT22;28587;46.794;23.594;2022-09-09T23:11:40;26.70;61.70
42949;DHT22;28587;46.794;23.594;2022-09-09T23:16:45;26.70;61.70
42949;DHT22;28587;46.794;23.594;2022-09-09T23:21:46;26.70;61.60
42949;DHT22;28587;46.794;23.594;2022-09-09T23:26:47;26.70;61.60
42949;DHT22;28587;46.794;23.594;2022-09-09T23:31:49;26.70;61.40
42949;DHT22;28587;46.794;23.594;2022-09-09T23:36:49;26.70;61.40
42949;DHT22;28587;46.794;23.594;2022-09-09T23:41:51;26.60;61.30
42949;DHT22;28587;46.794;23.594;2022-09-09T23:46:52;26.70;61.30
42949;DHT22;28587;46.794;23.594;2022-09-09T23:51:52;26.70;61.20
42949;DHT22;28587;46.794;23.594;2022-09-09T23:56:54;26.70;61.30
